Riverton, Louisiana
Current Conditions -  °F | °C
As of 1:53 AM on Tuesday 27 Jan 2015 (Local Time) from KMLU Reporting Station
Clear Clear  
Wind Chill: 42°   Ceiling: Unl
Heat Index: 44°   Visibility: 10mi
Dew Point: 35°   Wind: 5mph
Humidity: 71%   Direction: 240°WSW
Pressure: 30.05"   Gusts: NA
Location:  32.1631°N, 92.1971°W
Report Text: KMLU 270753Z AUTO 24004KT 10SM CLR 07/02 A3005 RMK AO2 SLP174 T00670017
Loading
Personal Weather Stations






























Interactive Weather Map New forecast layout! Learn more

10-Day Weather Forecast

Advertisements
Track Severe Weather on mobile